Time;durP1;ratioP1;P1;durP2;ratioP2;P2;SDS_P1;SDS_P2;PMS_P1;PMS_P2;Temp;Humidity;BMP_temperature;BMP_pressure;BME280_temperature;BME280_humidity;BME280_pressure;Samples;Min_cycle;Max_cycle;Signal;HPM_P1;HPM_P2
2022/04/03 00:00:52;;;;;;;157.10;56.80;;;;;;;;;;5084124;28;20195;-89
2022/04/03 00:03:20;;;;;;;160.25;57.97;;;;;;;;;;5082194;28;20230;-89
2022/04/03 00:05:46;;;;;;;159.10;57.70;;;;;;;;;;5082757;28;20230;-88
2022/04/03 00:08:13;;;;;;;158.60;57.15;;;;;;;;;;5082991;28;20203;-88
2022/04/03 00:10:40;;;;;;;166.20;61.67;;;;;;;;;;5097817;28;20286;-88
2022/04/03 00:13:07;;;;;;;159.77;58.17;;;;;;;;;;5100624;28;20226;-88
2022/04/03 00:15:38;;;;;;;158.48;57.05;;;;;;;;;;5087265;28;20226;-88
2022/04/03 00:18:05;;;;;;;161.05;59.17;;;;;;;;;;5083085;28;20206;-88
2022/04/03 00:20:32;;;;;;;159.43;57.78;;;;;;;;;;5082624;28;20248;-88
2022/04/03 00:22:59;;;;;;;156.02;55.90;;;;;;;;;;5082561;28;20211;-88
2022/04/03 00:25:25;;;;;;;154.45;55.65;;;;;;;;;;5095717;28;20232;-88
2022/04/03 00:27:52;;;;;;;159.38;59.45;;;;;;;;;;5102819;28;20224;-88
2022/04/03 00:30:18;;;;;;;157.48;57.33;;;;;;;;;;5100988;28;20202;-88
2022/04/03 00:32:45;;;;;;;156.93;58.10;;;;;;;;;;5100198;28;20769;-88
2022/04/03 00:35:11;;;;;;;154.52;56.28;;;;;;;;;;5090832;28;20192;-88
2022/04/03 00:37:39;;;;;;;156.70;57.60;;;;;;;;;;5082839;28;20199;-88
2022/04/03 00:40:06;;;;;;;153.95;56.45;;;;;;;;;;5092509;28;20235;-88
2022/04/03 00:42:34;;;;;;;158.55;58.03;;;;;;;;;;5104028;28;20199;-88
2022/04/03 00:45:00;;;;;;;159.80;58.67;;;;;;;;;;5106113;28;20191;-90
2022/04/03 00:47:27;;;;;;;166.65;57.95;;;;;;;;;;5105599;28;20202;-89
2022/04/03 00:49:53;;;;;;;159.60;57.22;;;;;;;;;;5098862;28;20690;-88
2022/04/03 00:52:20;;;;;;;155.32;56.53;;;;;;;;;;5086729;28;20230;-90
2022/04/03 00:54:48;;;;;;;158.55;57.30;;;;;;;;;;5092289;28;20240;-89
2022/04/03 00:57:15;;;;;;;156.57;57.45;;;;;;;;;;5105573;28;20271;-90
2022/04/03 00:59:42;;;;;;;159.43;58.33;;;;;;;;;;5105249;28;20190;-90
2022/04/03 01:02:08;;;;;;;160.73;58.63;;;;;;;;;;5105052;28;20203;-90
2022/04/03 01:04:37;;;;;;;160.55;58.90;;;;;;;;;;5103476;28;20221;-90
2022/04/03 01:07:03;;;;;;;160.25;59.55;;;;;;;;;;5083533;28;20195;-89
2022/04/03 01:09:30;;;;;;;160.55;58.42;;;;;;;;;;5086071;28;20199;-89
2022/04/03 01:11:58;;;;;;;163.20;59.97;;;;;;;;;;5104432;28;20265;-90
2022/04/03 01:14:31;;;;;;;157.30;57.20;;;;;;;;;;5102256;28;20620;-90
2022/04/03 01:16:58;;;;;;;156.75;56.70;;;;;;;;;;5083667;28;20204;-91
2022/04/03 01:19:24;;;;;;;163.35;58.75;;;;;;;;;;5084119;28;20207;-90
2022/04/03 01:21:51;;;;;;;156.65;57.38;;;;;;;;;;5090466;28;20221;-90
2022/04/03 01:24:18;;;;;;;162.57;58.80;;;;;;;;;;5097261;28;20234;-90
2022/04/03 01:26:46;;;;;;;159.27;58.03;;;;;;;;;;5104548;28;20275;-90
2022/04/03 01:29:12;;;;;;;161.13;59.00;;;;;;;;;;5103875;28;20225;-91
2022/04/03 01:31:39;;;;;;;157.80;57.15;;;;;;;;;;5088641;28;20195;-90
2022/04/03 01:34:05;;;;;;;159.85;57.67;;;;;;;;;;5084787;28;20203;-88
2022/04/03 01:36:32;;;;;;;160.45;57.63;;;;;;;;;;5104657;28;20232;-88
2022/04/03 01:38:58;;;;;;;157.77;57.33;;;;;;;;;;5103384;28;20215;-88
2022/04/03 01:41:25;;;;;;;165.10;59.90;;;;;;;;;;5087210;28;20663;-88
2022/04/03 01:43:52;;;;;;;161.48;58.92;;;;;;;;;;5083846;28;20614;-88
2022/04/03 01:46:19;;;;;;;162.65;58.30;;;;;;;;;;5085348;28;20195;-88
2022/04/03 01:48:45;;;;;;;159.90;56.40;;;;;;;;;;5084788;28;20191;-88
2022/04/03 01:51:12;;;;;;;160.68;58.25;;;;;;;;;;5084834;28;20686;-88
2022/04/03 01:53:38;;;;;;;160.60;58.13;;;;;;;;;;5084118;28;20234;-88
2022/04/03 01:56:06;;;;;;;162.38;56.97;;;;;;;;;;5097804;28;20191;-88
2022/04/03 01:58:32;;;;;;;159.90;57.25;;;;;;;;;;5105476;28;20207;-88
2022/04/03 02:01:00;;;;;;;160.20;57.55;;;;;;;;;;5092373;28;20217;-88
2022/04/03 02:03:28;;;;;;;159.52;58.03;;;;;;;;;;5084357;28;20195;-88
2022/04/03 02:05:55;;;;;;;158.25;57.33;;;;;;;;;;5085067;28;20210;-88
2022/04/03 02:08:21;;;;;;;158.85;57.28;;;;;;;;;;5084936;28;20261;-87
2022/04/03 02:10:48;;;;;;;161.38;58.00;;;;;;;;;;5094605;28;20217;-88
2022/04/03 02:13:14;;;;;;;159.80;57.80;;;;;;;;;;5104437;28;20226;-88
2022/04/03 02:15:41;;;;;;;160.32;57.63;;;;;;;;;;5095049;28;20222;-88
2022/04/03 02:18:09;;;;;;;161.02;58.72;;;;;;;;;;5083593;28;20203;-88
2022/04/03 02:20:36;;;;;;;160.98;58.20;;;;;;;;;;5083676;28;20195;-87
2022/04/03 02:23:03;;;;;;;162.10;59.10;;;;;;;;;;5084165;28;20219;-88
2022/04/03 02:25:30;;;;;;;164.68;58.47;;;;;;;;;;5090736;28;20198;-88
2022/04/03 02:27:57;;;;;;;164.20;58.63;;;;;;;;;;5103510;28;20558;-88
2022/04/03 02:30:23;;;;;;;164.70;57.90;;;;;;;;;;5101912;28;20265;-88
2022/04/03 02:32:50;;;;;;;161.82;58.88;;;;;;;;;;5103123;28;20254;-88
2022/04/03 02:35:18;;;;;;;163.30;59.67;;;;;;;;;;5098024;28;20264;-88
2022/04/03 02:37:45;;;;;;;160.77;58.83;;;;;;;;;;5082433;28;20270;-88
2022/04/03 02:40:12;;;;;;;158.60;57.28;;;;;;;;;;5087046;28;20236;-88
2022/04/03 02:42:39;;;;;;;161.27;57.60;;;;;;;;;;5104402;28;20203;-88
2022/04/03 02:45:06;;;;;;;166.80;59.20;;;;;;;;;;5104015;28;20247;-88
2022/04/03 02:47:33;;;;;;;162.82;58.92;;;;;;;;;;5102622;28;20191;-88
2022/04/03 02:50:00;;;;;;;163.25;58.00;;;;;;;;;;5101509;28;20295;-88
2022/04/03 02:52:28;;;;;;;158.93;57.03;;;;;;;;;;5082538;28;20227;-88
2022/04/03 02:54:56;;;;;;;167.07;58.70;;;;;;;;;;5083075;28;20203;-88
2022/04/03 02:57:23;;;;;;;159.18;56.63;;;;;;;;;;5103065;28;20206;-88
2022/04/03 02:59:50;;;;;;;161.93;59.53;;;;;;;;;;5103010;28;20199;-88
2022/04/03 03:02:16;;;;;;;162.93;59.45;;;;;;;;;;5103547;28;20210;-88
2022/04/03 03:04:43;;;;;;;160.57;57.58;;;;;;;;;;5102627;28;20260;-88
2022/04/03 03:07:09;;;;;;;160.48;57.60;;;;;;;;;;5085478;28;20199;-88
2022/04/03 03:09:37;;;;;;;159.48;58.13;;;;;;;;;;5083603;28;20200;-87
2022/04/03 03:12:05;;;;;;;161.35;58.97;;;;;;;;;;5099194;28;20694;-89
2022/04/03 03:14:31;;;;;;;160.57;57.70;;;;;;;;;;5101955;28;20206;-90
2022/04/03 03:16:58;;;;;;;159.13;57.88;;;;;;;;;;5102958;28;20251;-90
2022/04/03 03:19:24;;;;;;;158.10;57.65;;;;;;;;;;5102682;28;20206;-90
2022/04/03 03:21:51;;;;;;;165.93;58.17;;;;;;;;;;5101588;28;20250;-90
2022/04/03 03:24:17;;;;;;;160.40;57.17;;;;;;;;;;5094112;28;20206;-90
2022/04/03 03:26:45;;;;;;;159.43;56.50;;;;;;;;;;5097460;28;20195;-90
2022/04/03 03:29:12;;;;;;;160.65;57.47;;;;;;;;;;5103286;28;20203;-90
2022/04/03 03:31:38;;;;;;;162.10;58.58;;;;;;;;;;5103109;28;20194;-90
2022/04/03 03:34:05;;;;;;;157.90;57.00;;;;;;;;;;5103122;28;20232;-90
2022/04/03 03:36:31;;;;;;;158.82;57.38;;;;;;;;;;5101424;28;21747;-90
2022/04/03 03:38:58;;;;;;;157.00;57.17;;;;;;;;;;5094568;28;20245;-90
2022/04/03 03:41:24;;;;;;;161.70;56.65;;;;;;;;;;5093624;28;20191;-90
2022/04/03 03:43:52;;;;;;;160.07;56.83;;;;;;;;;;5102934;28;20199;-90
2022/04/03 03:46:18;;;;;;;163.57;59.38;;;;;;;;;;5102636;28;20199;-90
2022/04/03 03:48:45;;;;;;;161.48;58.92;;;;;;;;;;5102442;28;20202;-90
2022/04/03 03:51:11;;;;;;;160.10;58.22;;;;;;;;;;5101413;28;20280;-90
2022/04/03 03:53:38;;;;;;;159.80;58.83;;;;;;;;;;5102351;28;20226;-90
2022/04/03 03:56:05;;;;;;;162.32;59.58;;;;;;;;;;5100810;28;20256;-90
2022/04/03 03:58:31;;;;;;;158.93;56.53;;;;;;;;;;5101762;28;20655;-90
2022/04/03 04:00:59;;;;;;;156.82;56.97;;;;;;;;;;5095749;28;20268;-90
2022/04/03 04:03:26;;;;;;;159.95;57.08;;;;;;;;;;5080848;28;20707;-90
2022/04/03 04:05:52;;;;;;;159.70;59.13;;;;;;;;;;5081334;28;20256;-90
2022/04/03 04:08:19;;;;;;;160.68;58.35;;;;;;;;;;5081023;28;20248;-90
2022/04/03 04:10:45;;;;;;;161.93;58.80;;;;;;;;;;5085540;28;20191;-90
2022/04/03 04:13:12;;;;;;;156.90;56.83;;;;;;;;;;5103355;28;20226;-90
2022/04/03 04:15:38;;;;;;;157.43;57.85;;;;;;;;;;5099605;28;20198;-90
2022/04/03 04:18:06;;;;;;;159.18;57.65;;;;;;;;;;5081697;28;20206;-90
2022/04/03 04:20:33;;;;;;;157.88;57.25;;;;;;;;;;5082108;28;20203;-90
2022/04/03 04:23:00;;;;;;;157.63;57.25;;;;;;;;;;5082340;28;20195;-90
2022/04/03 04:25:27;;;;;;;162.15;59.08;;;;;;;;;;5082090;28;20237;-90
2022/04/03 04:27:53;;;;;;;159.90;58.33;;;;;;;;;;5081521;28;20199;-90
2022/04/03 04:30:19;;;;;;;160.23;58.58;;;;;;;;;;5081810;28;20195;-90
2022/04/03 04:32:46;;;;;;;159.30;57.28;;;;;;;;;;5100943;28;20636;-89
2022/04/03 04:35:14;;;;;;;158.63;57.22;;;;;;;;;;5103029;28;20194;-90
2022/04/03 04:37:41;;;;;;;158.65;58.17;;;;;;;;;;5084542;28;20204;-90
2022/04/03 04:40:09;;;;;;;161.30;58.80;;;;;;;;;;5081686;28;20267;-90
2022/04/03 04:42:35;;;;;;;166.60;58.70;;;;;;;;;;5097390;28;20193;-90
2022/04/03 04:45:02;;;;;;;158.13;56.58;;;;;;;;;;5101521;28;20225;-90
2022/04/03 04:47:29;;;;;;;157.52;55.85;;;;;;;;;;5100734;28;20222;-91
2022/04/03 04:49:55;;;;;;;160.73;57.33;;;;;;;;;;5101348;28;20235;-91
2022/04/03 04:52:23;;;;;;;160.60;58.15;;;;;;;;;;5086320;28;20191;-90
2022/04/03 04:54:50;;;;;;;157.52;56.90;;;;;;;;;;5084626;28;20297;-90
2022/04/03 04:57:16;;;;;;;157.80;56.53;;;;;;;;;;5101333;28;20195;-91
2022/04/03 04:59:43;;;;;;;161.15;57.53;;;;;;;;;;5101989;28;20203;-90
2022/04/03 05:02:09;;;;;;;159.98;58.00;;;;;;;;;;5089419;28;20202;-90
2022/04/03 05:04:36;;;;;;;164.18;57.10;;;;;;;;;;5089485;28;20199;-90
2022/04/03 05:07:02;;;;;;;162.82;59.00;;;;;;;;;;5089162;28;20196;-90
2022/04/03 05:09:31;;;;;;;162.88;59.25;;;;;;;;;;5079782;28;20203;-90
2022/04/03 05:11:59;;;;;;;155.60;55.65;;;;;;;;;;5092687;28;20251;-90
2022/04/03 05:14:25;;;;;;;157.57;55.72;;;;;;;;;;5102805;28;20234;-90
2022/04/03 05:16:51;;;;;;;162.93;58.33;;;;;;;;;;5100919;28;20198;-91
2022/04/03 05:19:18;;;;;;;164.85;58.25;;;;;;;;;;5101023;28;20229;-90
2022/04/03 05:21:45;;;;;;;161.38;57.25;;;;;;;;;;5100777;28;20267;-90
2022/04/03 05:24:12;;;;;;;167.93;60.25;;;;;;;;;;5092067;28;20204;-90
2022/04/03 05:26:39;;;;;;;163.65;57.92;;;;;;;;;;5089084;28;20202;-90
2022/04/03 05:29:07;;;;;;;165.23;60.05;;;;;;;;;;5103059;28;20264;-90
2022/04/03 05:31:33;;;;;;;163.50;58.22;;;;;;;;;;5105461;28;20282;-89
2022/04/03 05:34:00;;;;;;;166.23;60.40;;;;;;;;;;5098641;28;20231;-91
2022/04/03 05:36:26;;;;;;;166.25;59.70;;;;;;;;;;5104531;28;20191;-90
2022/04/03 05:38:53;;;;;;;168.35;61.45;;;;;;;;;;5102875;28;20203;-90
2022/04/03 05:41:19;;;;;;;167.07;60.67;;;;;;;;;;5100823;28;20230;-91
2022/04/03 05:43:47;;;;;;;168.13;61.78;;;;;;;;;;5083918;28;20221;-90
2022/04/03 05:46:14;;;;;;;167.48;61.08;;;;;;;;;;5084138;28;20199;-91
2022/04/03 05:48:40;;;;;;;167.27;60.33;;;;;;;;;;5084782;28;20225;-91
2022/04/03 05:51:07;;;;;;;172.45;60.65;;;;;;;;;;5083406;28;20235;-90
2022/04/03 05:53:33;;;;;;;167.43;61.28;;;;;;;;;;5083284;28;20252;-89
2022/04/03 05:56:00;;;;;;;178.25;59.53;;;;;;;;;;5087296;28;20199;-88
2022/04/03 05:58:26;;;;;;;181.45;69.03;;;;;;;;;;5101710;28;20194;-89
2022/04/03 06:00:54;;;;;;;183.63;68.30;;;;;;;;;;5103134;28;20721;-90
2022/04/03 06:03:20;;;;;;;178.38;66.80;;;;;;;;;;5088333;28;20492;-87
2022/04/03 06:05:47;;;;;;;179.43;65.97;;;;;;;;;;5084063;28;20196;-89
2022/04/03 06:08:13;;;;;;;184.02;65.13;;;;;;;;;;5101977;28;20229;-91
2022/04/03 06:10:40;;;;;;;177.90;64.67;;;;;;;;;;5096750;28;20290;-92
2022/04/03 06:13:08;;;;;;;179.60;63.55;;;;;;;;;;5097880;28;20448;-90
2022/04/03 06:15:36;;;;;;;175.47;63.83;;;;;;;;;;5103107;28;20201;-89
2022/04/03 06:18:05;;;;;;;175.48;63.47;;;;;;;;;;5098027;28;20470;-90
2022/04/03 06:20:32;;;;;;;172.07;61.23;;;;;;;;;;5104806;28;20198;-91
2022/04/03 06:22:59;;;;;;;184.27;67.83;;;;;;;;;;5089783;28;20438;-89
2022/04/03 06:25:25;;;;;;;180.63;66.47;;;;;;;;;;5099282;28;20460;-91
2022/04/03 06:27:52;;;;;;;185.90;68.00;;;;;;;;;;5089489;28;20468;-90
2022/04/03 06:30:19;;;;;;;185.80;68.80;;;;;;;;;;5082249;28;20538;-89
2022/04/03 06:32:46;;;;;;;184.70;65.60;;;;;;;;;;5082769;28;20445;-89
2022/04/03 06:35:14;;;;;;;188.87;69.77;;;;;;;;;;5092810;28;20890;-90
2022/04/03 06:37:42;;;;;;;187.33;69.03;;;;;;;;;;5096951;28;20457;-89
2022/04/03 06:40:10;;;;;;;188.57;69.80;;;;;;;;;;5096275;28;21109;-90
2022/04/03 06:42:36;;;;;;;194.43;68.50;;;;;;;;;;5102411;28;20444;-89
2022/04/03 06:45:04;;;;;;;194.40;69.47;;;;;;;;;;5101985;28;20440;-89
2022/04/03 06:47:31;;;;;;;194.93;70.03;;;;;;;;;;5092981;28;20446;-90
2022/04/03 06:49:58;;;;;;;191.00;66.57;;;;;;;;;;5098404;28;20518;-90
2022/04/03 06:52:26;;;;;;;186.43;65.57;;;;;;;;;;5093010;28;20442;-91
2022/04/03 06:54:52;;;;;;;189.57;66.30;;;;;;;;;;5081756;28;20485;-90
2022/04/03 06:57:19;;;;;;;190.97;66.70;;;;;;;;;;5090263;28;20824;-91
2022/04/03 06:59:45;;;;;;;195.27;69.97;;;;;;;;;;5103261;28;20515;-90
2022/04/03 07:02:12;;;;;;;187.10;65.47;;;;;;;;;;5102404;28;20465;-90
2022/04/03 07:04:38;;;;;;;187.83;65.77;;;;;;;;;;5099974;28;20461;-90
2022/04/03 07:07:05;;;;;;;187.10;65.77;;;;;;;;;;5095542;28;20949;-90
2022/04/03 07:09:32;;;;;;;187.40;65.40;;;;;;;;;;5078777;28;20442;-90
2022/04/03 07:11:59;;;;;;;187.47;65.80;;;;;;;;;;5078171;28;20471;-90
2022/04/03 07:14:26;;;;;;;194.03;65.43;;;;;;;;;;5096426;28;20607;-90
2022/04/03 07:16:52;;;;;;;190.10;66.40;;;;;;;;;;5095878;28;20498;-90
2022/04/03 07:19:19;;;;;;;187.90;65.13;;;;;;;;;;5095022;28;20440;-90
2022/04/03 07:21:46;;;;;;;191.53;67.47;;;;;;;;;;5092050;28;20461;-90
2022/04/03 07:24:12;;;;;;;189.80;66.67;;;;;;;;;;5073481;28;20545;-92
2022/04/03 07:26:40;;;;;;;188.57;65.00;;;;;;;;;;5073787;28;20445;-90
2022/04/03 07:29:07;;;;;;;190.90;65.40;;;;;;;;;;5073953;28;20449;-90
2022/04/03 07:31:33;;;;;;;190.10;64.60;;;;;;;;;;5075650;28;20468;-90
2022/04/03 07:34:00;;;;;;;190.30;66.77;;;;;;;;;;5094109;28;20520;-90
2022/04/03 07:36:26;;;;;;;186.00;64.63;;;;;;;;;;5093732;28;20988;-89
2022/04/03 07:38:53;;;;;;;190.23;67.43;;;;;;;;;;5086686;28;21220;-90
2022/04/03 07:41:20;;;;;;;184.07;63.80;;;;;;;;;;5076538;28;20453;-90
2022/04/03 07:43:48;;;;;;;191.30;65.33;;;;;;;;;;5095080;28;20531;-90
2022/04/03 07:46:16;;;;;;;190.30;65.53;;;;;;;;;;5097708;28;20908;-89
2022/04/03 07:48:42;;;;;;;184.00;62.37;;;;;;;;;;5100572;28;20535;-90
2022/04/03 07:51:09;;;;;;;183.33;62.77;;;;;;;;;;5102462;28;20537;-90
2022/04/03 07:53:35;;;;;;;185.57;63.87;;;;;;;;;;5101030;28;20437;-90
2022/04/03 07:56:04;;;;;;;188.57;65.20;;;;;;;;;;5100879;28;20979;-90
2022/04/03 07:58:30;;;;;;;187.80;63.50;;;;;;;;;;5088129;28;20443;-90
2022/04/03 08:00:58;;;;;;;187.17;64.17;;;;;;;;;;5081163;28;20446;-90
2022/04/03 08:03:25;;;;;;;186.87;63.90;;;;;;;;;;5081058;28;20433;-90
2022/04/03 08:05:51;;;;;;;190.30;64.57;;;;;;;;;;5081619;28;20460;-90
2022/04/03 08:08:18;;;;;;;194.63;66.53;;;;;;;;;;5082030;28;20471;-91
2022/04/03 08:10:44;;;;;;;190.90;65.13;;;;;;;;;;5081926;28;20450;-89
2022/04/03 08:13:11;;;;;;;188.77;64.07;;;;;;;;;;5090920;28;20461;-90
2022/04/03 08:15:37;;;;;;;190.73;65.00;;;;;;;;;;5081754;28;20488;-90
2022/04/03 08:18:05;;;;;;;192.70;66.27;;;;;;;;;;5082362;28;20437;-90
2022/04/03 08:20:32;;;;;;;197.07;67.87;;;;;;;;;;5077571;28;20480;-90
2022/04/03 08:23:01;;;;;;;199.17;70.40;;;;;;;;;;5076110;28;20468;-89
2022/04/03 08:25:28;;;;;;;197.87;68.97;;;;;;;;;;5076393;28;20445;-90
2022/04/03 08:27:55;;;;;;;201.97;71.10;;;;;;;;;;5079051;28;20487;-91
2022/04/03 08:30:22;;;;;;;202.90;71.60;;;;;;;;;;5076396;28;20442;-91
2022/04/03 08:32:49;;;;;;;197.27;69.07;;;;;;;;;;5076762;28;20445;-93
2022/04/03 08:35:17;;;;;;;195.10;66.80;;;;;;;;;;5080569;28;20512;-92
2022/04/03 08:37:44;;;;;;;197.07;68.37;;;;;;;;;;5082229;28;20442;-94
2022/04/03 08:40:11;;;;;;;198.17;68.03;;;;;;;;;;5081918;28;20437;-92
2022/04/03 08:42:38;;;;;;;196.80;67.90;;;;;;;;;;5084847;28;20490;-90
2022/04/03 08:45:05;;;;;;;194.40;67.37;;;;;;;;;;5101110;28;20620;-92
2022/04/03 08:47:32;;;;;;;193.97;65.27;;;;;;;;;;5100435;28;20449;-91
2022/04/03 08:50:01;;;;;;;194.90;66.17;;;;;;;;;;5082689;28;20477;-91
2022/04/03 08:52:29;;;;;;;196.97;67.10;;;;;;;;;;5082286;28;20442;-93
2022/04/03 08:54:55;;;;;;;195.37;67.30;;;;;;;;;;5081863;28;20489;-93
2022/04/03 08:57:23;;;;;;;200.87;69.70;;;;;;;;;;5080504;28;20442;-91
2022/04/03 08:59:51;;;;;;;199.27;68.97;;;;;;;;;;5097123;28;20917;-94
2022/04/03 09:02:17;;;;;;;198.67;67.63;;;;;;;;;;5099162;28;20466;-93
2022/04/03 09:04:44;;;;;;;194.17;66.77;;;;;;;;;;5085649;28;20488;-93
2022/04/03 09:07:16;;;;;;;192.97;65.30;;;;;;;;;;5086002;28;20949;-93
2022/04/03 09:09:44;;;;;;;194.90;67.20;;;;;;;;;;5085772;28;20434;-92
2022/04/03 09:12:11;;;;;;;198.47;68.30;;;;;;;;;;5114967;28;20516;-93
2022/04/03 09:14:45;;;;;;;197.60;67.30;;;;;;;;;;5084095;28;20485;-94
2022/04/03 09:17:11;;;;;;;194.87;66.70;;;;;;;;;;5100486;28;20465;-94
2022/04/03 09:19:38;;;;;;;195.40;65.67;;;;;;;;;;5084843;28;20457;-92
2022/04/03 09:22:04;;;;;;;203.83;71.07;;;;;;;;;;5085242;28;20445;-92
2022/04/03 09:24:34;;;;;;;198.00;67.80;;;;;;;;;;5085509;28;20471;-93
2022/04/03 09:27:03;;;;;;;202.70;70.50;;;;;;;;;;5084927;28;20460;-94
2022/04/03 09:29:30;;;;;;;194.83;66.87;;;;;;;;;;5102095;28;20436;-92
2022/04/03 09:32:00;;;;;;;195.83;66.17;;;;;;;;;;5103094;28;20468;-93
2022/04/03 09:34:28;;;;;;;204.33;72.70;;;;;;;;;;5084871;28;20535;-92
2022/04/03 09:36:58;;;;;;;198.77;68.20;;;;;;;;;;5085143;28;20511;-92
2022/04/03 09:39:26;;;;;;;200.17;70.00;;;;;;;;;;5084568;28;20441;-92
2022/04/03 09:41:57;;;;;;;196.67;68.10;;;;;;;;;;5084497;28;20454;-93
2022/04/03 09:44:29;;;;;;;201.10;69.07;;;;;;;;;;5098570;28;20445;-92
2022/04/03 09:47:12;;;;;;;198.87;68.33;;;;;;;;;;5101283;28;20487;-93
2022/04/03 09:49:39;;;;;;;198.40;67.53;;;;;;;;;;5086913;28;20568;-92
2022/04/03 09:52:06;;;;;;;202.30;69.80;;;;;;;;;;5083801;28;21002;-91
2022/04/03 09:54:32;;;;;;;201.10;68.70;;;;;;;;;;5087567;28;20488;-92
2022/04/03 09:57:18;;;;;;;203.27;70.43;;;;;;;;;;5102421;28;20445;-92
2022/04/03 09:59:49;;;;;;;206.07;71.27;;;;;;;;;;5101816;28;20466;-91
2022/04/03 10:02:15;;;;;;;203.30;71.00;;;;;;;;;;5103746;28;20445;-90
2022/04/03 10:04:42;;;;;;;203.77;71.77;;;;;;;;;;5099139;28;20468;-91
2022/04/03 10:07:12;;;;;;;198.47;67.70;;;;;;;;;;5104945;28;20448;-92
2022/04/03 10:09:40;;;;;;;203.60;69.63;;;;;;;;;;5087523;28;20449;-92
2022/04/03 10:12:06;;;;;;;202.27;70.80;;;;;;;;;;5084553;28;20453;-92
2022/04/03 10:14:34;;;;;;;200.57;68.50;;;;;;;;;;5098757;28;20565;-91
2022/04/03 10:17:02;;;;;;;202.30;69.07;;;;;;;;;;5101925;28;20452;-92
2022/04/03 10:19:28;;;;;;;202.80;70.77;;;;;;;;;;5100334;28;20460;-91
2022/04/03 10:21:55;;;;;;;201.87;70.87;;;;;;;;;;5104243;28;20967;-92
2022/04/03 10:24:23;;;;;;;206.60;71.13;;;;;;;;;;5091118;28;20438;-90
2022/04/03 10:26:53;;;;;;;204.13;71.70;;;;;;;;;;5083618;28;20446;-91
2022/04/03 10:29:19;;;;;;;200.77;68.80;;;;;;;;;;5100246;28;20451;-91
2022/04/03 10:31:54;;;;;;;202.23;69.50;;;;;;;;;;5123261;28;20440;-91
2022/04/03 10:34:22;;;;;;;203.97;72.20;;;;;;;;;;5098937;28;21259;-92
2022/04/03 10:36:51;;;;;;;208.90;73.50;;;;;;;;;;5084972;28;20483;-90
2022/04/03 10:39:22;;;;;;;209.93;74.13;;;;;;;;;;5089981;28;20450;-91
2022/04/03 10:41:48;;;;;;;207.17;72.50;;;;;;;;;;5082882;28;20446;-89
2022/04/03 10:44:18;;;;;;;208.83;72.80;;;;;;;;;;5094046;28;20494;-91
2022/04/03 10:47:03;;;;;;;215.77;73.37;;;;;;;;;;5102727;28;20963;-91
2022/04/03 10:49:30;;;;;;;210.03;72.60;;;;;;;;;;5102097;28;20470;-91
2022/04/03 10:51:58;;;;;;;212.57;75.50;;;;;;;;;;5100514;28;20521;-90
2022/04/03 10:54:29;;;;;;;210.60;72.93;;;;;;;;;;5089714;28;20465;-90
2022/04/03 10:57:24;;;;;;;212.20;75.03;;;;;;;;;;5080777;28;20468;-90
2022/04/03 11:00:05;;;;;;;209.33;71.33;;;;;;;;;;5095113;28;20445;-90
2022/04/03 11:02:32;;;;;;;211.80;73.53;;;;;;;;;;5102158;28;20476;-92
2022/04/03 11:05:20;;;;;;;211.43;73.10;;;;;;;;;;5101890;28;20448;-91
2022/04/03 11:07:46;;;;;;;210.83;72.33;;;;;;;;;;5102697;28;20453;-91
2022/04/03 11:10:13;;;;;;;208.77;71.97;;;;;;;;;;5084692;28;20457;-91
2022/04/03 11:12:54;;;;;;;209.23;71.37;;;;;;;;;;5081274;28;20449;-90
2022/04/03 11:15:20;;;;;;;207.20;71.43;;;;;;;;;;5099619;28;20481;-91
2022/04/03 11:17:51;;;;;;;206.40;69.90;;;;;;;;;;5102071;28;20445;-90
2022/04/03 11:20:48;;;;;;;207.50;68.60;;;;;;;;;;5102767;28;20452;-91
2022/04/03 11:23:17;;;;;;;211.93;72.57;;;;;;;;;;4996928;28;20518;-92
2022/04/03 11:25:44;;;;;;;217.67;75.20;;;;;;;;;;5064411;28;20456;-92
2022/04/03 11:28:10;;;;;;;213.73;74.13;;;;;;;;;;5083497;28;20530;-92
2022/04/03 11:30:37;;;;;;;214.83;74.30;;;;;;;;;;5085297;28;20432;-91
2022/04/03 11:33:04;;;;;;;213.97;69.70;;;;;;;;;;5087592;28;20452;-92
2022/04/03 11:35:35;;;;;;;211.07;72.60;;;;;;;;;;5087470;28;20526;-91
2022/04/03 11:38:02;;;;;;;208.97;70.27;;;;;;;;;;5085345;28;20464;-92
2022/04/03 11:40:30;;;;;;;212.67;74.30;;;;;;;;;;5099335;28;20445;-90
2022/04/03 11:43:07;;;;;;;211.63;71.83;;;;;;;;;;5101839;28;20502;-90
2022/04/03 11:45:33;;;;;;;206.73;69.73;;;;;;;;;;5099594;28;20472;-91
2022/04/03 11:48:13;;;;;;;205.80;70.00;;;;;;;;;;5087235;28;20472;-90
2022/04/03 11:50:39;;;;;;;207.47;70.57;;;;;;;;;;5095336;28;20537;-90
2022/04/03 11:53:09;;;;;;;203.57;68.87;;;;;;;;;;5102836;28;20494;-90
2022/04/03 11:55:37;;;;;;;210.20;72.17;;;;;;;;;;5083835;28;20497;-90
2022/04/03 11:58:04;;;;;;;209.37;72.67;;;;;;;;;;5080445;28;20499;-90
2022/04/03 12:00:31;;;;;;;208.57;70.70;;;;;;;;;;5082828;28;20474;-92
2022/04/03 12:02:58;;;;;;;206.70;70.10;;;;;;;;;;5083572;28;20490;-90
2022/04/03 12:05:24;;;;;;;208.37;71.20;;;;;;;;;;5097478;28;20487;-92
2022/04/03 12:07:51;;;;;;;207.37;71.27;;;;;;;;;;5099738;28;20445;-90
2022/04/03 12:10:23;;;;;;;211.00;71.80;;;;;;;;;;5096017;28;20441;-89
2022/04/03 12:12:51;;;;;;;210.90;71.20;;;;;;;;;;5093701;28;20458;-90
2022/04/03 12:15:20;;;;;;;216.87;74.27;;;;;;;;;;5088319;28;20481;-90
2022/04/03 12:17:47;;;;;;;223.20;72.17;;;;;;;;;;5088435;28;20486;-91
2022/04/03 12:20:13;;;;;;;240.23;76.23;;;;;;;;;;5076428;28;20449;-90
2022/04/03 12:22:41;;;;;;;239.90;72.90;;;;;;;;;;5084364;28;20444;-90
2022/04/03 12:25:08;;;;;;;277.63;80.70;;;;;;;;;;5083332;28;20449;-90
2022/04/03 12:27:37;;;;;;;269.33;78.07;;;;;;;;;;5080095;28;20441;-91
2022/04/03 12:30:08;;;;;;;261.97;72.80;;;;;;;;;;5100091;28;20484;-89
2022/04/03 12:32:36;;;;;;;260.97;72.77;;;;;;;;;;5101399;28;21022;-89
2022/04/03 12:35:05;;;;;;;260.23;72.77;;;;;;;;;;5095350;28;20468;-88
2022/04/03 12:37:33;;;;;;;271.63;73.73;;;;;;;;;;5088173;28;20442;-90
2022/04/03 12:40:04;;;;;;;265.57;75.00;;;;;;;;;;5092910;28;20470;-90
2022/04/03 12:42:32;;;;;;;266.47;75.53;;;;;;;;;;5101779;28;20446;-89
2022/04/03 12:45:00;;;;;;;274.40;78.17;;;;;;;;;;5090154;28;20461;-89
2022/04/03 12:47:35;;;;;;;276.53;77.67;;;;;;;;;;5090725;28;20525;-88
2022/04/03 12:50:15;;;;;;;277.13;78.27;;;;;;;;;;5090237;28;20602;-89
2022/04/03 12:52:43;;;;;;;276.17;78.23;;;;;;;;;;5089860;28;20437;-89
2022/04/03 12:55:28;;;;;;;283.93;82.60;;;;;;;;;;5092338;28;20526;-90
2022/04/03 13:00:52;;;;;;;270.00;75.07;;;;;;;;;;5105944;28;20455;-89
2022/04/03 13:03:24;;;;;;;270.93;76.37;;;;;;;;;;5105781;28;20506;-89
2022/04/03 13:05:51;;;;;;;282.13;80.10;;;;;;;;;;5081262;28;20461;-89
2022/04/03 13:08:17;;;;;;;273.83;77.77;;;;;;;;;;5077700;28;20449;-90
2022/04/03 13:10:50;;;;;;;265.63;77.67;;;;;;;;;;5088598;28;20466;-90
2022/04/03 13:13:19;;;;;;;275.20;81.20;;;;;;;;;;5097157;28;20448;-87
2022/04/03 13:15:46;;;;;;;277.87;81.87;;;;;;;;;;5096279;28;20476;-88
2022/04/03 13:18:12;;;;;;;277.63;84.33;;;;;;;;;;5097646;28;20449;-89
2022/04/03 13:20:40;;;;;;;263.80;78.30;;;;;;;;;;5099466;28;20468;-89
2022/04/03 13:23:07;;;;;;;266.73;78.80;;;;;;;;;;5102184;28;20452;-89
2022/04/03 13:25:33;;;;;;;266.77;78.77;;;;;;;;;;5096485;28;20474;-89
2022/04/03 13:28:00;;;;;;;271.63;80.97;;;;;;;;;;5105067;28;20471;-89
2022/04/03 13:30:26;;;;;;;268.83;81.67;;;;;;;;;;5103747;28;20997;-89
2022/04/03 13:32:53;;;;;;;274.83;83.60;;;;;;;;;;5099480;28;20444;-88
2022/04/03 13:35:20;;;;;;;274.70;84.87;;;;;;;;;;5095617;28;20529;-90
2022/04/03 13:37:48;;;;;;;277.07;85.57;;;;;;;;;;5096605;28;20698;-90
2022/04/03 13:40:15;;;;;;;273.17;86.97;;;;;;;;;;5089229;28;20441;-88
2022/04/03 13:42:41;;;;;;;290.10;90.70;;;;;;;;;;5098111;28;20720;-89
2022/04/03 13:45:08;;;;;;;284.17;90.17;;;;;;;;;;5098420;28;20451;-89
2022/04/03 13:47:35;;;;;;;275.47;87.30;;;;;;;;;;5102472;28;20457;-89
2022/04/03 13:50:01;;;;;;;270.17;84.00;;;;;;;;;;5103276;28;20494;-88
2022/04/03 13:52:28;;;;;;;280.07;89.60;;;;;;;;;;5099285;28;20460;-89
2022/04/03 13:54:57;;;;;;;271.63;84.80;;;;;;;;;;5096819;28;20449;-89
2022/04/03 13:57:23;;;;;;;276.77;85.37;;;;;;;;;;5104649;28;20518;-90
2022/04/03 13:59:51;;;;;;;279.53;86.77;;;;;;;;;;5104806;28;20441;-88
2022/04/03 14:02:17;;;;;;;265.97;79.93;;;;;;;;;;5104736;28;20468;-90
2022/04/03 14:04:44;;;;;;;269.27;81.10;;;;;;;;;;5105360;28;20451;-89
2022/04/03 14:07:10;;;;;;;268.97;81.83;;;;;;;;;;5104058;28;20444;-88
2022/04/03 14:09:37;;;;;;;276.27;86.37;;;;;;;;;;5098620;28;20469;-89